sensor_id;sensor_type;location;lat;lon;timestamp;pressure;altitude;pressure_sealevel;temperature;humidity
39301;BME280;25019;42.626;23.380;2023-02-26T00:02:15;93284.94;;;12.84;49.71
39301;BME280;25019;42.626;23.380;2023-02-26T00:04:41;93224.50;;;12.46;49.42
39301;BME280;25019;42.626;23.380;2023-02-26T00:07:07;93280.50;;;12.79;49.53
39301;BME280;25019;42.626;23.380;2023-02-26T00:09:32;93278.97;;;12.73;50.04
39301;BME280;25019;42.626;23.380;2023-02-26T00:11:58;93297.56;;;12.78;49.89
39301;BME280;25019;42.626;23.380;2023-02-26T00:14:25;93279.41;;;12.80;50.02
39301;BME280;25019;42.626;23.380;2023-02-26T00:19:22;93269.56;;;12.81;49.98
39301;BME280;25019;42.626;23.380;2023-02-26T00:21:48;93271.22;;;12.77;49.75
39301;BME280;25019;42.626;23.380;2023-02-26T00:24:14;93260.56;;;12.77;49.60
39301;BME280;25019;42.626;23.380;2023-02-26T00:26:40;93234.38;;;12.65;49.96
39301;BME280;25019;42.626;23.380;2023-02-26T00:29:08;93224.78;;;12.64;49.94
39301;BME280;25019;42.626;23.380;2023-02-26T00:31:34;93253.16;;;12.73;49.82
39301;BME280;25019;42.626;23.380;2023-02-26T00:34:00;93261.97;;;12.69;50.16
39301;BME280;25019;42.626;23.380;2023-02-26T00:36:49;93273.75;;;12.68;50.38
39301;BME280;25019;42.626;23.380;2023-02-26T00:42:07;93246.44;;;12.57;50.68
39301;BME280;25019;42.626;23.380;2023-02-26T00:44:33;93248.84;;;12.58;50.31
39301;BME280;25019;42.626;23.380;2023-02-26T00:47:07;93239.69;;;12.46;50.87
39301;BME280;25019;42.626;23.380;2023-02-26T00:50:01;93242.28;;;12.51;50.15
39301;BME280;25019;42.626;23.380;2023-02-26T00:55:14;93174.44;;;12.10;50.10
39301;BME280;25019;42.626;23.380;2023-02-26T00:57:40;93237.47;;;12.53;50.49
39301;BME280;25019;42.626;23.380;2023-02-26T01:00:06;93238.88;;;12.45;50.35
39301;BME280;25019;42.626;23.380;2023-02-26T01:02:36;93233.50;;;12.50;50.54
39301;BME280;25019;42.626;23.380;2023-02-26T01:05:03;93236.53;;;12.43;50.04
39301;BME280;25019;42.626;23.380;2023-02-26T01:07:29;93231.41;;;12.47;50.21
39301;BME280;25019;42.626;23.380;2023-02-26T01:09:59;93182.75;;;12.03;49.58
39301;BME280;25019;42.626;23.380;2023-02-26T01:12:25;93202.72;;;12.25;49.13
39301;BME280;25019;42.626;23.380;2023-02-26T01:14:51;93207.44;;;12.28;49.29
39301;BME280;25019;42.626;23.380;2023-02-26T01:17:24;93171.84;;;12.05;49.67
39301;BME280;25019;42.626;23.380;2023-02-26T01:19:55;93197.41;;;12.25;49.32
39301;BME280;25019;42.626;23.380;2023-02-26T01:24:58;93197.53;;;12.34;49.67
39301;BME280;25019;42.626;23.380;2023-02-26T01:27:26;93173.00;;;12.18;49.27
39301;BME280;25019;42.626;23.380;2023-02-26T01:29:53;93179.34;;;12.22;49.04
39301;BME280;25019;42.626;23.380;2023-02-26T01:32:25;93192.28;;;12.28;49.33
39301;BME280;25019;42.626;23.380;2023-02-26T01:35:03;93184.88;;;12.25;48.69
39301;BME280;25019;42.626;23.380;2023-02-26T01:37:45;93158.25;;;12.25;48.72
39301;BME280;25019;42.626;23.380;2023-02-26T01:43:11;93182.78;;;12.41;48.25
39301;BME280;25019;42.626;23.380;2023-02-26T01:48:48;93162.34;;;12.37;48.29
39301;BME280;25019;42.626;23.380;2023-02-26T01:51:14;93144.88;;;12.31;47.71
39301;BME280;25019;42.626;23.380;2023-02-26T01:53:40;93099.69;;;12.06;47.48
39301;BME280;25019;42.626;23.380;2023-02-26T01:56:14;93152.47;;;12.37;47.60
39301;BME280;25019;42.626;23.380;2023-02-26T01:58:42;93150.63;;;12.38;46.91
39301;BME280;25019;42.626;23.380;2023-02-26T02:01:08;93130.47;;;12.32;46.84
39301;BME280;25019;42.626;23.380;2023-02-26T02:03:37;93150.63;;;12.38;46.62
39301;BME280;25019;42.626;23.380;2023-02-26T02:06:17;93137.88;;;12.35;45.83
39301;BME280;25019;42.626;23.380;2023-02-26T02:08:44;93088.69;;;12.13;45.36
39301;BME280;25019;42.626;23.380;2023-02-26T02:11:11;93133.56;;;12.39;45.10
39301;BME280;25019;42.626;23.380;2023-02-26T02:28:16;93132.31;;;12.50;43.15
39301;BME280;25019;42.626;23.380;2023-02-26T02:31:21;93118.03;;;12.60;43.13
39301;BME280;25019;42.626;23.380;2023-02-26T02:34:10;93158.91;;;12.69;43.14
39301;BME280;25019;42.626;23.380;2023-02-26T02:36:43;93149.13;;;12.65;43.68
39301;BME280;25019;42.626;23.380;2023-02-26T02:39:36;93133.38;;;12.49;44.12
39301;BME280;25019;42.626;23.380;2023-02-26T02:44:56;93162.81;;;12.58;43.02
39301;BME280;25019;42.626;23.380;2023-02-26T02:47:25;93157.41;;;12.63;42.71
39301;BME280;25019;42.626;23.380;2023-02-26T02:50:38;93151.78;;;12.65;42.93
39301;BME280;25019;42.626;23.380;2023-02-26T02:53:15;93067.78;;;12.06;43.26
39301;BME280;25019;42.626;23.380;2023-02-26T02:55:49;93165.47;;;12.58;42.97
39301;BME280;25019;42.626;23.380;2023-02-26T02:58:22;93151.50;;;12.66;42.39
39301;BME280;25019;42.626;23.380;2023-02-26T03:00:53;93163.16;;;12.70;42.96
39301;BME280;25019;42.626;23.380;2023-02-26T03:03:34;93107.78;;;12.34;42.38
39301;BME280;25019;42.626;23.380;2023-02-26T03:06:04;93137.28;;;12.71;42.07
39301;BME280;25019;42.626;23.380;2023-02-26T03:08:35;93150.25;;;12.78;41.97
39301;BME280;25019;42.626;23.380;2023-02-26T03:11:02;93130.81;;;12.77;42.23
39301;BME280;25019;42.626;23.380;2023-02-26T03:13:27;93154.19;;;12.80;42.12
39301;BME280;25019;42.626;23.380;2023-02-26T03:18:47;93096.44;;;12.28;42.27
39301;BME280;25019;42.626;23.380;2023-02-26T03:26:33;93116.59;;;12.35;42.89
39301;BME280;25019;42.626;23.380;2023-02-26T03:29:09;93146.50;;;12.46;42.29
39301;BME280;25019;42.626;23.380;2023-02-26T03:31:54;93144.03;;;12.49;42.35
39301;BME280;25019;42.626;23.380;2023-02-26T03:34:36;93148.78;;;12.52;42.11
39301;BME280;25019;42.626;23.380;2023-02-26T03:37:15;93150.38;;;12.53;42.02
39301;BME280;25019;42.626;23.380;2023-02-26T03:39:54;93077.38;;;12.21;41.80
39301;BME280;25019;42.626;23.380;2023-02-26T03:42:37;93146.47;;;12.65;41.54
39301;BME280;25019;42.626;23.380;2023-02-26T03:45:12;93133.94;;;12.65;41.16
39301;BME280;25019;42.626;23.380;2023-02-26T03:47:40;93100.53;;;12.40;41.78
39301;BME280;25019;42.626;23.380;2023-02-26T03:50:13;93137.63;;;12.50;41.78
39301;BME280;25019;42.626;23.380;2023-02-26T03:52:49;93120.25;;;12.39;41.59
39301;BME280;25019;42.626;23.380;2023-02-26T03:55:43;93101.00;;;12.09;41.94
39301;BME280;25019;42.626;23.380;2023-02-26T03:58:29;93071.63;;;12.14;41.24
39301;BME280;25019;42.626;23.380;2023-02-26T04:01:21;93113.47;;;12.47;41.54
39301;BME280;25019;42.626;23.380;2023-02-26T04:03:57;93124.44;;;12.59;41.69
39301;BME280;25019;42.626;23.380;2023-02-26T04:06:25;93112.13;;;12.63;41.88
39301;BME280;25019;42.626;23.380;2023-02-26T04:08:51;93120.19;;;12.58;41.98
39301;BME280;25019;42.626;23.380;2023-02-26T04:11:19;93122.56;;;12.59;41.62
39301;BME280;25019;42.626;23.380;2023-02-26T04:13:46;93068.66;;;12.02;42.17
39301;BME280;25019;42.626;23.380;2023-02-26T04:16:15;93115.06;;;12.48;41.57
39301;BME280;25019;42.626;23.380;2023-02-26T04:18:41;93083.50;;;12.55;41.59
39301;BME280;25019;42.626;23.380;2023-02-26T04:21:11;93047.44;;;12.29;41.38
39301;BME280;25019;42.626;23.380;2023-02-26T04:23:37;93112.94;;;12.64;41.36
39301;BME280;25019;42.626;23.380;2023-02-26T04:26:03;93089.22;;;12.62;41.29
39301;BME280;25019;42.626;23.380;2023-02-26T04:28:29;93091.97;;;12.57;41.39
39301;BME280;25019;42.626;23.380;2023-02-26T04:30:55;93074.72;;;12.54;41.24
39301;BME280;25019;42.626;23.380;2023-02-26T04:33:21;93086.38;;;12.58;41.16
39301;BME280;25019;42.626;23.380;2023-02-26T04:35:48;93063.38;;;12.49;41.42
39301;BME280;25019;42.626;23.380;2023-02-26T04:38:15;93087.63;;;12.47;40.96
39301;BME280;25019;42.626;23.380;2023-02-26T04:40:41;93071.47;;;12.57;40.54
39301;BME280;25019;42.626;23.380;2023-02-26T04:43:11;93058.91;;;12.44;41.03
39301;BME280;25019;42.626;23.380;2023-02-26T04:45:45;93085.78;;;12.62;41.11
39301;BME280;25019;42.626;23.380;2023-02-26T04:48:12;93087.38;;;12.63;41.06
39301;BME280;25019;42.626;23.380;2023-02-26T04:50:38;93068.31;;;12.55;41.47
39301;BME280;25019;42.626;23.380;2023-02-26T04:53:04;93061.97;;;12.37;41.58
39301;BME280;25019;42.626;23.380;2023-02-26T04:55:30;93024.47;;;12.20;40.89
39301;BME280;25019;42.626;23.380;2023-02-26T04:57:56;93038.19;;;12.41;40.24
39301;BME280;25019;42.626;23.380;2023-02-26T05:00:24;93018.63;;;12.18;40.71
39301;BME280;25019;42.626;23.380;2023-02-26T05:02:50;93037.59;;;12.44;40.56
39301;BME280;25019;42.626;23.380;2023-02-26T05:05:16;93062.91;;;12.61;40.43
39301;BME280;25019;42.626;23.380;2023-02-26T05:07:42;92997.84;;;12.20;40.12
39301;BME280;25019;42.626;23.380;2023-02-26T05:10:09;93054.41;;;12.58;40.37
39301;BME280;25019;42.626;23.380;2023-02-26T05:12:35;93026.13;;;12.63;40.37
39301;BME280;25019;42.626;23.380;2023-02-26T05:15:00;92963.81;;;12.17;40.46
39301;BME280;25019;42.626;23.380;2023-02-26T05:17:26;93064.66;;;12.51;40.42
39301;BME280;25019;42.626;23.380;2023-02-26T05:19:52;93046.50;;;12.53;40.18
39301;BME280;25019;42.626;23.380;2023-02-26T05:22:18;93031.03;;;12.55;40.42
39301;BME280;25019;42.626;23.380;2023-02-26T05:24:45;93022.75;;;12.57;39.93
39301;BME280;25019;42.626;23.380;2023-02-26T05:27:10;93055.03;;;12.69;39.56
39301;BME280;25019;42.626;23.380;2023-02-26T05:29:41;93060.03;;;12.71;39.91
39301;BME280;25019;42.626;23.380;2023-02-26T05:32:11;93054.22;;;12.83;39.59
39301;BME280;25019;42.626;23.380;2023-02-26T05:34:36;93053.66;;;12.86;39.87
39301;BME280;25019;42.626;23.380;2023-02-26T05:37:02;93019.72;;;12.92;39.12
39301;BME280;25019;42.626;23.380;2023-02-26T05:39:28;92976.78;;;12.65;39.17
39301;BME280;25019;42.626;23.380;2023-02-26T05:41:54;93032.56;;;13.03;39.20
39301;BME280;25019;42.626;23.380;2023-02-26T05:44:21;93048.63;;;13.12;38.92
39301;BME280;25019;42.626;23.380;2023-02-26T05:46:47;93043.56;;;13.11;39.11
39301;BME280;25019;42.626;23.380;2023-02-26T05:49:13;92914.75;;;12.37;39.36
39301;BME280;25019;42.626;23.380;2023-02-26T05:51:38;93036.06;;;13.13;38.58
39301;BME280;25019;42.626;23.380;2023-02-26T05:54:04;93018.31;;;13.08;38.52
39301;BME280;25019;42.626;23.380;2023-02-26T05:56:30;93050.00;;;13.24;38.45
39301;BME280;25019;42.626;23.380;2023-02-26T05:58:56;93053.25;;;13.34;38.35
39301;BME280;25019;42.626;23.380;2023-02-26T06:01:22;93067.19;;;13.31;38.54
39301;BME280;25019;42.626;23.380;2023-02-26T06:03:48;93041.91;;;13.43;37.74
39301;BME280;25019;42.626;23.380;2023-02-26T06:06:14;93068.47;;;13.48;38.06
39301;BME280;25019;42.626;23.380;2023-02-26T06:08:46;93050.59;;;13.48;38.32
39301;BME280;25019;42.626;23.380;2023-02-26T06:11:12;93001.03;;;13.19;37.97
39301;BME280;25019;42.626;23.380;2023-02-26T06:13:37;93064.41;;;13.65;37.95
39301;BME280;25019;42.626;23.380;2023-02-26T06:16:03;93015.72;;;13.31;37.85
39301;BME280;25019;42.626;23.380;2023-02-26T06:18:29;93033.41;;;13.41;38.08
39301;BME280;25019;42.626;23.380;2023-02-26T06:20:56;93053.22;;;13.76;37.71
39301;BME280;25019;42.626;23.380;2023-02-26T06:23:22;93048.97;;;13.75;37.34
39301;BME280;25019;42.626;23.380;2023-02-26T06:25:50;93091.34;;;13.77;37.13
39301;BME280;25019;42.626;23.380;2023-02-26T06:28:16;93054.16;;;13.81;37.21
39301;BME280;25019;42.626;23.380;2023-02-26T06:30:43;93004.31;;;13.67;36.94
39301;BME280;25019;42.626;23.380;2023-02-26T06:33:08;93060.97;;;14.09;36.72
39301;BME280;25019;42.626;23.380;2023-02-26T06:35:34;93056.56;;;14.05;36.08
39301;BME280;25019;42.626;23.380;2023-02-26T06:38:00;93085.31;;;14.31;36.27
39301;BME280;25019;42.626;23.380;2023-02-26T06:40:26;93068.09;;;14.37;36.30
39301;BME280;25019;42.626;23.380;2023-02-26T06:42:52;93062.59;;;14.33;35.90
39301;BME280;25019;42.626;23.380;2023-02-26T06:45:17;93053.53;;;14.43;35.34
39301;BME280;25019;42.626;23.380;2023-02-26T06:47:43;93066.81;;;14.57;35.21
39301;BME280;25019;42.626;23.380;2023-02-26T06:50:09;93015.72;;;14.27;35.51
39301;BME280;25019;42.626;23.380;2023-02-26T06:52:35;93072.28;;;14.75;34.95
39301;BME280;25019;42.626;23.380;2023-02-26T06:55:02;93053.09;;;14.73;34.92
39301;BME280;25019;42.626;23.380;2023-02-26T06:57:27;93045.94;;;14.59;34.94
39301;BME280;25019;42.626;23.380;2023-02-26T06:59:53;93032.13;;;14.66;34.84
39301;BME280;25019;42.626;23.380;2023-02-26T07:02:20;93011.00;;;14.56;34.88
39301;BME280;25019;42.626;23.380;2023-02-26T07:04:48;93011.97;;;14.60;34.87
39301;BME280;25019;42.626;23.380;2023-02-26T07:07:14;92998.16;;;14.66;34.87
39301;BME280;25019;42.626;23.380;2023-02-26T07:09:43;92991.13;;;14.71;34.90
39301;BME280;25019;42.626;23.380;2023-02-26T07:12:09;92983.88;;;14.62;34.64
39301;BME280;25019;42.626;23.380;2023-02-26T07:14:34;92976.19;;;14.70;34.74
39301;BME280;25019;42.626;23.380;2023-02-26T07:17:01;92895.59;;;14.36;34.61
39301;BME280;25019;42.626;23.380;2023-02-26T07:19:26;92985.91;;;14.97;34.46
39301;BME280;25019;42.626;23.380;2023-02-26T07:21:52;92967.78;;;14.85;34.17
39301;BME280;25019;42.626;23.380;2023-02-26T07:24:20;92966.88;;;15.07;34.15
39301;BME280;25019;42.626;23.380;2023-02-26T07:26:46;92979.16;;;15.08;33.78
39301;BME280;25019;42.626;23.380;2023-02-26T07:29:12;92950.66;;;14.86;33.74
39301;BME280;25019;42.626;23.380;2023-02-26T07:31:38;93001.22;;;15.32;33.42
39301;BME280;25019;42.626;23.380;2023-02-26T07:34:04;92983.78;;;15.78;34.29
39301;BME280;25019;42.626;23.380;2023-02-26T07:36:31;92950.91;;;15.69;33.43
39301;BME280;25019;42.626;23.380;2023-02-26T07:38:57;93036.72;;;16.16;32.72
39301;BME280;25019;42.626;23.380;2023-02-26T07:41:23;93030.13;;;16.14;32.20
39301;BME280;25019;42.626;23.380;2023-02-26T07:43:48;93017.53;;;15.97;32.13
39301;BME280;25019;42.626;23.380;2023-02-26T07:46:14;92965.06;;;15.52;32.09
39301;BME280;25019;42.626;23.380;2023-02-26T07:48:39;93009.66;;;16.00;31.69
39301;BME280;25019;42.626;23.380;2023-02-26T07:51:06;93015.31;;;15.99;31.63
39301;BME280;25019;42.626;23.380;2023-02-26T07:53:32;93008.88;;;16.00;31.53
39301;BME280;25019;42.626;23.380;2023-02-26T07:55:58;92963.34;;;16.00;31.23
39301;BME280;25019;42.626;23.380;2023-02-26T07:58:24;92978.59;;;16.26;30.74
39301;BME280;25019;42.626;23.380;2023-02-26T08:00:50;93000.44;;;16.45;30.84
39301;BME280;25019;42.626;23.380;2023-02-26T08:03:18;93007.94;;;16.61;30.44
39301;BME280;25019;42.626;23.380;2023-02-26T08:05:43;92998.81;;;16.71;30.33
39301;BME280;25019;42.626;23.380;2023-02-26T08:08:09;92957.09;;;16.43;30.14
39301;BME280;25019;42.626;23.380;2023-02-26T08:10:35;93019.41;;;16.97;29.99
39301;BME280;25019;42.626;23.380;2023-02-26T08:13:01;93012.88;;;17.06;30.03
39301;BME280;25019;42.626;23.380;2023-02-26T08:15:26;92996.91;;;17.10;29.81
39301;BME280;25019;42.626;23.380;2023-02-26T08:17:52;93018.63;;;17.26;29.48
39301;BME280;25019;42.626;23.380;2023-02-26T08:20:18;93020.94;;;17.36;29.33
39301;BME280;25019;42.626;23.380;2023-02-26T08:22:44;93016.25;;;17.25;29.56
39301;BME280;25019;42.626;23.380;2023-02-26T08:25:11;93013.66;;;17.37;29.48
39301;BME280;25019;42.626;23.380;2023-02-26T08:27:37;93033.50;;;17.45;29.36
39301;BME280;25019;42.626;23.380;2023-02-26T08:30:04;93022.47;;;17.67;28.92
39301;BME280;25019;42.626;23.380;2023-02-26T08:32:31;93025.84;;;17.34;29.87
39301;BME280;25019;42.626;23.380;2023-02-26T08:34:57;92933.81;;;16.74;29.09
39301;BME280;25019;42.626;23.380;2023-02-26T08:37:23;93047.31;;;17.34;29.15
39301;BME280;25019;42.626;23.380;2023-02-26T08:39:49;93051.06;;;16.95;29.71
39301;BME280;25019;42.626;23.380;2023-02-26T08:42:15;93059.50;;;16.67;29.42
39301;BME280;25019;42.626;23.380;2023-02-26T08:44:42;93043.78;;;17.04;29.02
39301;BME280;25019;42.626;23.380;2023-02-26T08:47:08;93061.41;;;17.22;28.65
39301;BME280;25019;42.626;23.380;2023-02-26T08:49:33;93068.19;;;17.20;28.71
39301;BME280;25019;42.626;23.380;2023-02-26T08:51:59;93059.91;;;17.34;29.53
39301;BME280;25019;42.626;23.380;2023-02-26T08:54:25;93009.44;;;16.97;28.78
39301;BME280;25019;42.626;23.380;2023-02-26T08:56:51;93065.84;;;17.48;28.31
39301;BME280;25019;42.626;23.380;2023-02-26T08:59:20;93056.59;;;17.37;28.36
39301;BME280;25019;42.626;23.380;2023-02-26T09:01:46;93068.34;;;17.54;28.29
39301;BME280;25019;42.626;23.380;2023-02-26T09:04:11;93064.56;;;17.76;28.60
39301;BME280;25019;42.626;23.380;2023-02-26T09:06:37;92941.38;;;17.11;28.40
39301;BME280;25019;42.626;23.380;2023-02-26T09:09:03;93013.44;;;17.93;28.04
39301;BME280;25019;42.626;23.380;2023-02-26T09:11:29;93050.84;;;18.20;27.30
39301;BME280;25019;42.626;23.380;2023-02-26T09:13:55;93046.59;;;18.19;27.39
39301;BME280;25019;42.626;23.380;2023-02-26T09:16:24;93066.41;;;18.48;27.62
39301;BME280;25019;42.626;23.380;2023-02-26T09:18:50;93002.13;;;18.09;27.04
39301;BME280;25019;42.626;23.380;2023-02-26T09:21:16;93066.03;;;18.70;27.00
39301;BME280;25019;42.626;23.380;2023-02-26T09:23:42;93074.50;;;18.81;27.15
39301;BME280;25019;42.626;23.380;2023-02-26T09:26:07;93061.72;;;18.91;26.38
39301;BME280;25019;42.626;23.380;2023-02-26T09:28:34;93016.56;;;18.84;26.05
39301;BME280;25019;42.626;23.380;2023-02-26T09:31:00;93069.03;;;18.90;26.04
39301;BME280;25019;42.626;23.380;2023-02-26T09:33:26;93052.94;;;19.15;25.87
39301;BME280;25019;42.626;23.380;2023-02-26T09:35:51;93069.66;;;19.08;25.66
39301;BME280;25019;42.626;23.380;2023-02-26T09:38:18;93045.03;;;18.85;25.85
39301;BME280;25019;42.626;23.380;2023-02-26T09:46:24;93070.53;;;19.00;25.30
39301;BME280;25019;42.626;23.380;2023-02-26T09:49:01;93063.56;;;19.11;25.30
39301;BME280;25019;42.626;23.380;2023-02-26T09:51:29;93012.50;;;18.78;25.49
39301;BME280;25019;42.626;23.380;2023-02-26T09:53:56;93048.44;;;19.07;25.13
39301;BME280;25019;42.626;23.380;2023-02-26T09:56:25;93050.84;;;18.87;25.25
39301;BME280;25019;42.626;23.380;2023-02-26T09:58:52;93054.75;;;18.44;25.56
39301;BME280;25019;42.626;23.380;2023-02-26T10:01:28;93054.91;;;18.60;25.57
39301;BME280;25019;42.626;23.380;2023-02-26T10:09:56;93032.06;;;18.20;26.44
39301;BME280;25019;42.626;23.380;2023-02-26T10:12:28;93039.78;;;18.21;26.30
39301;BME280;25019;42.626;23.380;2023-02-26T10:15:14;93020.84;;;18.18;26.69
39301;BME280;25019;42.626;23.380;2023-02-26T10:18:07;93036.00;;;18.22;26.73
39301;BME280;25019;42.626;23.380;2023-02-26T10:25:49;93010.97;;;18.09;26.72
39301;BME280;25019;42.626;23.380;2023-02-26T10:28:33;93041.00;;;18.11;26.96
39301;BME280;25019;42.626;23.380;2023-02-26T10:31:29;93023.59;;;18.30;26.75
39301;BME280;25019;42.626;23.380;2023-02-26T10:42:16;92998.50;;;18.26;27.51
39301;BME280;25019;42.626;23.380;2023-02-26T10:50:09;92975.50;;;17.95;27.46
39301;BME280;25019;42.626;23.380;2023-02-26T10:52:36;92960.78;;;18.01;27.38
39301;BME280;25019;42.626;23.380;2023-02-26T10:55:19;92988.28;;;17.98;26.90
39301;BME280;25019;42.626;23.380;2023-02-26T10:57:59;92992.09;;;17.76;27.80
39301;BME280;25019;42.626;23.380;2023-02-26T11:00:27;93003.34;;;17.69;28.76
39301;BME280;25019;42.626;23.380;2023-02-26T11:02:53;93005.00;;;17.82;28.48
39301;BME280;25019;42.626;23.380;2023-02-26T11:05:24;92997.84;;;17.44;28.89
39301;BME280;25019;42.626;23.380;2023-02-26T11:07:59;92992.94;;;17.46;28.62
39301;BME280;25019;42.626;23.380;2023-02-26T11:10:38;92954.44;;;17.42;28.67
39301;BME280;25019;42.626;23.380;2023-02-26T11:13:04;92960.72;;;17.46;28.40
39301;BME280;25019;42.626;23.380;2023-02-26T11:15:30;92962.56;;;17.76;28.32
39301;BME280;25019;42.626;23.380;2023-02-26T11:17:57;92991.31;;;17.75;28.10
39301;BME280;25019;42.626;23.380;2023-02-26T11:20:35;92981.41;;;17.88;27.93
39301;BME280;25019;42.626;23.380;2023-02-26T11:23:05;92958.63;;;17.73;28.66
39301;BME280;25019;42.626;23.380;2023-02-26T11:25:33;92975.47;;;18.04;28.27
39301;BME280;25019;42.626;23.380;2023-02-26T11:28:05;92965.50;;;18.04;28.09
39301;BME280;25019;42.626;23.380;2023-02-26T11:30:36;92912.28;;;17.64;28.41
39301;BME280;25019;42.626;23.380;2023-02-26T11:33:15;92973.69;;;18.08;27.90
39301;BME280;25019;42.626;23.380;2023-02-26T11:35:42;93010.09;;;17.96;27.95
39301;BME280;25019;42.626;23.380;2023-02-26T11:38:15;92999.03;;;17.77;28.51
39301;BME280;25019;42.626;23.380;2023-02-26T11:40:46;92946.47;;;17.55;28.26
39301;BME280;25019;42.626;23.380;2023-02-26T11:43:24;93018.28;;;17.79;28.46
39301;BME280;25019;42.626;23.380;2023-02-26T11:46:02;93002.38;;;17.52;28.39
39301;BME280;25019;42.626;23.380;2023-02-26T11:48:47;93010.47;;;17.65;28.56
39301;BME280;25019;42.626;23.380;2023-02-26T11:51:22;93048.13;;;17.56;28.59
39301;BME280;25019;42.626;23.380;2023-02-26T11:53:54;93054.94;;;17.54;28.85
39301;BME280;25019;42.626;23.380;2023-02-26T11:56:38;93032.63;;;17.32;28.72
39301;BME280;25019;42.626;23.380;2023-02-26T11:59:19;93014.69;;;17.24;29.01
39301;BME280;25019;42.626;23.380;2023-02-26T12:01:46;93055.66;;;17.63;29.36
39301;BME280;25019;42.626;23.380;2023-02-26T12:04:14;92943.50;;;16.96;29.85
39301;BME280;25019;42.626;23.380;2023-02-26T12:06:41;93057.56;;;17.32;29.94
39301;BME280;25019;42.626;23.380;2023-02-26T12:09:12;93035.50;;;17.27;29.48
39301;BME280;25019;42.626;23.380;2023-02-26T12:20:06;93054.81;;;17.11;30.87
39301;BME280;25019;42.626;23.380;2023-02-26T12:28:53;93088.16;;;17.40;30.47
39301;BME280;25019;42.626;23.380;2023-02-26T12:40:12;93101.22;;;17.72;30.43
39301;BME280;25019;42.626;23.380;2023-02-26T12:42:21;93096.34;;;17.74;29.94
39301;BME280;25019;42.626;23.380;2023-02-26T12:47:51;93135.66;;;17.78;30.27
39301;BME280;25019;42.626;23.380;2023-02-26T12:50:36;93102.03;;;18.02;29.53
39301;BME280;25019;42.626;23.380;2023-02-26T12:55:34;93131.28;;;18.25;29.32
39301;BME280;25019;42.626;23.380;2023-02-26T13:01:02;93113.91;;;18.22;29.80
39301;BME280;25019;42.626;23.380;2023-02-26T13:09:58;93112.72;;;17.51;32.12
39301;BME280;25019;42.626;23.380;2023-02-26T13:12:51;93115.97;;;17.65;31.86
39301;BME280;25019;42.626;23.380;2023-02-26T13:15:37;93049.53;;;17.32;31.13
39301;BME280;25019;42.626;23.380;2023-02-26T13:18:42;93108.56;;;17.92;30.13
39301;BME280;25019;42.626;23.380;2023-02-26T13:21:28;93110.56;;;18.04;30.33
39301;BME280;25019;42.626;23.380;2023-02-26T13:26:43;93108.34;;;18.06;31.10
39301;BME280;25019;42.626;23.380;2023-02-26T13:29:19;93116.72;;;18.26;29.87
39301;BME280;25019;42.626;23.380;2023-02-26T13:31:55;93104.66;;;18.87;29.51
39301;BME280;25019;42.626;23.380;2023-02-26T13:34:41;93099.47;;;19.03;29.88
39301;BME280;25019;42.626;23.380;2023-02-26T13:37:20;93080.28;;;19.05;29.66
39301;BME280;25019;42.626;23.380;2023-02-26T13:49:00;93089.66;;;18.52;29.54
39301;BME280;25019;42.626;23.380;2023-02-26T13:51:43;93094.44;;;18.04;30.44
39301;BME280;25019;42.626;23.380;2023-02-26T13:56:58;93085.47;;;18.00;30.33
39301;BME280;25019;42.626;23.380;2023-02-26T13:59:36;93083.56;;;17.71;30.70
39301;BME280;25019;42.626;23.380;2023-02-26T14:02:36;93081.03;;;17.44;30.93
39301;BME280;25019;42.626;23.380;2023-02-26T14:08:07;93091.66;;;17.62;30.55
39301;BME280;25019;42.626;23.380;2023-02-26T14:10:45;93069.69;;;17.69;30.46
39301;BME280;25019;42.626;23.380;2023-02-26T14:13:21;93100.47;;;18.01;29.72
39301;BME280;25019;42.626;23.380;2023-02-26T14:16:09;93093.75;;;17.86;29.49
39301;BME280;25019;42.626;23.380;2023-02-26T14:21:26;93100.69;;;17.87;29.55
39301;BME280;25019;42.626;23.380;2023-02-26T14:24:13;93100.00;;;17.69;29.66
39301;BME280;25019;42.626;23.380;2023-02-26T14:26:45;93095.72;;;17.38;30.32
39301;BME280;25019;42.626;23.380;2023-02-26T14:29:13;93114.22;;;17.31;30.36
39301;BME280;25019;42.626;23.380;2023-02-26T14:34:50;93041.41;;;16.55;31.29
39301;BME280;25019;42.626;23.380;2023-02-26T14:37:19;93112.78;;;16.86;31.57
39301;BME280;25019;42.626;23.380;2023-02-26T14:42:25;93126.19;;;16.86;31.96
39301;BME280;25019;42.626;23.380;2023-02-26T14:45:17;93095.16;;;16.58;32.11
39301;BME280;25019;42.626;23.380;2023-02-26T14:47:46;93130.13;;;16.80;32.23
39301;BME280;25019;42.626;23.380;2023-02-26T14:50:16;93128.09;;;16.68;32.36
39301;BME280;25019;42.626;23.380;2023-02-26T14:55:47;93140.53;;;16.72;32.30
39301;BME280;25019;42.626;23.380;2023-02-26T15:00:56;93156.47;;;16.77;32.51
39301;BME280;25019;42.626;23.380;2023-02-26T15:09:00;93152.22;;;16.32;33.76
39301;BME280;25019;42.626;23.380;2023-02-26T15:11:55;93148.59;;;16.28;33.93
39301;BME280;25019;42.626;23.380;2023-02-26T15:22:47;93169.22;;;16.10;35.21
39301;BME280;25019;42.626;23.380;2023-02-26T15:25:24;93161.78;;;16.07;34.91
39301;BME280;25019;42.626;23.380;2023-02-26T15:27:52;93100.28;;;15.67;35.00
39301;BME280;25019;42.626;23.380;2023-02-26T15:30:18;93173.31;;;15.99;35.21
39301;BME280;25019;42.626;23.380;2023-02-26T15:32:45;93193.31;;;16.01;35.18
39301;BME280;25019;42.626;23.380;2023-02-26T15:35:20;93188.88;;;15.97;36.29
39301;BME280;25019;42.626;23.380;2023-02-26T15:37:52;93191.22;;;15.90;37.52
39301;BME280;25019;42.626;23.380;2023-02-26T15:40:18;93196.81;;;15.79;38.29
39301;BME280;25019;42.626;23.380;2023-02-26T15:42:48;93181.78;;;15.52;39.22
39301;BME280;25019;42.626;23.380;2023-02-26T15:45:30;93211.25;;;15.61;39.49